sensor_id;sensor_type;location;lat;lon;timestamp;P1;durP1;ratioP1;P2;durP2;ratioP2
151;SDS011;68;48.792;9.164;2023-08-06T00:00:20;27.55;;;14.63;;
151;SDS011;68;48.792;9.164;2023-08-06T00:02:48;27.85;;;15.55;;
151;SDS011;68;48.792;9.164;2023-08-06T00:05:15;28.40;;;14.67;;
151;SDS011;68;48.792;9.164;2023-08-06T00:07:43;29.80;;;16.17;;
151;SDS011;68;48.792;9.164;2023-08-06T00:10:10;28.37;;;15.63;;
151;SDS011;68;48.792;9.164;2023-08-06T00:12:37;27.77;;;15.65;;
151;SDS011;68;48.792;9.164;2023-08-06T00:15:05;27.13;;;16.17;;
151;SDS011;68;48.792;9.164;2023-08-06T00:17:33;26.05;;;13.82;;
151;SDS011;68;48.792;9.164;2023-08-06T00:20:00;25.90;;;13.50;;
151;SDS011;68;48.792;9.164;2023-08-06T00:22:29;26.73;;;13.55;;
151;SDS011;68;48.792;9.164;2023-08-06T00:24:56;24.95;;;12.63;;
151;SDS011;68;48.792;9.164;2023-08-06T00:27:23;26.25;;;14.18;;
151;SDS011;68;48.792;9.164;2023-08-06T00:29:50;25.88;;;12.30;;
151;SDS011;68;48.792;9.164;2023-08-06T00:32:18;26.15;;;14.07;;
151;SDS011;68;48.792;9.164;2023-08-06T00:34:45;27.17;;;14.23;;
151;SDS011;68;48.792;9.164;2023-08-06T00:37:14;25.88;;;12.52;;
151;SDS011;68;48.792;9.164;2023-08-06T00:39:41;30.38;;;14.13;;
151;SDS011;68;48.792;9.164;2023-08-06T00:42:08;27.15;;;12.65;;
151;SDS011;68;48.792;9.164;2023-08-06T00:44:35;25.38;;;12.90;;
151;SDS011;68;48.792;9.164;2023-08-06T00:47:02;25.95;;;12.20;;
151;SDS011;68;48.792;9.164;2023-08-06T00:49:30;23.90;;;12.02;;
151;SDS011;68;48.792;9.164;2023-08-06T00:51:57;24.15;;;12.23;;
151;SDS011;68;48.792;9.164;2023-08-06T00:54:25;27.67;;;11.85;;
151;SDS011;68;48.792;9.164;2023-08-06T00:56:54;23.27;;;12.65;;
151;SDS011;68;48.792;9.164;2023-08-06T00:59:22;23.83;;;11.43;;
151;SDS011;68;48.792;9.164;2023-08-06T01:01:49;27.83;;;13.57;;
151;SDS011;68;48.792;9.164;2023-08-06T01:04:16;24.83;;;13.73;;
151;SDS011;68;48.792;9.164;2023-08-06T01:06:45;22.75;;;11.13;;
151;SDS011;68;48.792;9.164;2023-08-06T01:09:20;24.65;;;11.95;;
151;SDS011;68;48.792;9.164;2023-08-06T01:11:57;27.90;;;12.50;;
151;SDS011;68;48.792;9.164;2023-08-06T01:14:33;25.23;;;12.82;;
151;SDS011;68;48.792;9.164;2023-08-06T01:17:04;24.88;;;12.55;;
151;SDS011;68;48.792;9.164;2023-08-06T01:19:31;24.67;;;13.13;;
151;SDS011;68;48.792;9.164;2023-08-06T01:21:59;27.10;;;13.35;;
151;SDS011;68;48.792;9.164;2023-08-06T01:24:26;27.48;;;12.55;;
151;SDS011;68;48.792;9.164;2023-08-06T01:26:55;25.25;;;13.95;;
151;SDS011;68;48.792;9.164;2023-08-06T01:29:31;26.20;;;13.80;;
151;SDS011;68;48.792;9.164;2023-08-06T01:32:01;29.98;;;13.02;;
151;SDS011;68;48.792;9.164;2023-08-06T01:34:31;25.95;;;13.38;;
151;SDS011;68;48.792;9.164;2023-08-06T01:37:01;26.17;;;15.27;;
151;SDS011;68;48.792;9.164;2023-08-06T01:39:28;25.70;;;14.13;;
151;SDS011;68;48.792;9.164;2023-08-06T01:41:57;26.80;;;14.35;;
151;SDS011;68;48.792;9.164;2023-08-06T01:44:24;26.52;;;13.57;;
151;SDS011;68;48.792;9.164;2023-08-06T01:46:50;25.67;;;12.88;;
151;SDS011;68;48.792;9.164;2023-08-06T01:49:17;29.08;;;14.63;;
151;SDS011;68;48.792;9.164;2023-08-06T01:51:44;26.50;;;14.98;;
151;SDS011;68;48.792;9.164;2023-08-06T01:54:12;25.58;;;12.98;;
151;SDS011;68;48.792;9.164;2023-08-06T01:56:39;24.05;;;12.25;;
151;SDS011;68;48.792;9.164;2023-08-06T01:59:05;26.60;;;13.95;;
151;SDS011;68;48.792;9.164;2023-08-06T02:01:32;25.67;;;14.73;;
151;SDS011;68;48.792;9.164;2023-08-06T02:03:59;25.70;;;13.93;;
151;SDS011;68;48.792;9.164;2023-08-06T02:06:26;26.70;;;13.55;;
151;SDS011;68;48.792;9.164;2023-08-06T02:08:53;29.98;;;15.10;;
151;SDS011;68;48.792;9.164;2023-08-06T02:11:21;28.95;;;13.30;;
151;SDS011;68;48.792;9.164;2023-08-06T02:13:47;26.80;;;15.95;;
151;SDS011;68;48.792;9.164;2023-08-06T02:16:14;25.15;;;12.90;;
151;SDS011;68;48.792;9.164;2023-08-06T02:18:41;28.23;;;13.98;;
151;SDS011;68;48.792;9.164;2023-08-06T02:21:08;29.02;;;14.20;;
151;SDS011;68;48.792;9.164;2023-08-06T02:23:34;24.83;;;12.90;;
151;SDS011;68;48.792;9.164;2023-08-06T02:26:02;24.33;;;13.30;;
151;SDS011;68;48.792;9.164;2023-08-06T02:28:30;27.30;;;14.82;;
151;SDS011;68;48.792;9.164;2023-08-06T02:30:58;26.33;;;13.50;;
151;SDS011;68;48.792;9.164;2023-08-06T02:33:24;27.70;;;12.88;;
151;SDS011;68;48.792;9.164;2023-08-06T02:35:51;26.30;;;12.85;;
151;SDS011;68;48.792;9.164;2023-08-06T02:38:25;24.95;;;14.25;;
151;SDS011;68;48.792;9.164;2023-08-06T02:40:52;25.95;;;15.25;;
151;SDS011;68;48.792;9.164;2023-08-06T02:43:18;28.83;;;15.40;;
151;SDS011;68;48.792;9.164;2023-08-06T02:45:46;26.77;;;12.82;;
151;SDS011;68;48.792;9.164;2023-08-06T02:48:13;27.35;;;14.90;;
151;SDS011;68;48.792;9.164;2023-08-06T02:50:40;26.85;;;14.10;;
151;SDS011;68;48.792;9.164;2023-08-06T02:53:07;25.77;;;12.27;;
151;SDS011;68;48.792;9.164;2023-08-06T02:55:34;27.80;;;12.93;;
151;SDS011;68;48.792;9.164;2023-08-06T02:58:02;26.08;;;14.23;;
151;SDS011;68;48.792;9.164;2023-08-06T03:00:28;25.80;;;13.45;;
151;SDS011;68;48.792;9.164;2023-08-06T03:02:56;27.33;;;13.95;;
151;SDS011;68;48.792;9.164;2023-08-06T03:05:23;25.83;;;12.93;;
151;SDS011;68;48.792;9.164;2023-08-06T03:07:50;24.77;;;12.57;;
151;SDS011;68;48.792;9.164;2023-08-06T03:10:17;23.85;;;12.15;;
151;SDS011;68;48.792;9.164;2023-08-06T03:12:45;24.42;;;13.52;;
151;SDS011;68;48.792;9.164;2023-08-06T03:15:12;26.23;;;12.95;;
151;SDS011;68;48.792;9.164;2023-08-06T03:17:38;24.52;;;12.23;;
151;SDS011;68;48.792;9.164;2023-08-06T03:20:07;23.90;;;12.90;;
151;SDS011;68;48.792;9.164;2023-08-06T03:22:35;26.25;;;14.32;;
151;SDS011;68;48.792;9.164;2023-08-06T03:25:01;24.10;;;11.98;;
151;SDS011;68;48.792;9.164;2023-08-06T03:27:29;25.10;;;14.75;;
151;SDS011;68;48.792;9.164;2023-08-06T03:29:55;27.33;;;14.18;;
151;SDS011;68;48.792;9.164;2023-08-06T03:32:22;25.63;;;14.52;;
151;SDS011;68;48.792;9.164;2023-08-06T03:34:49;27.40;;;13.23;;
151;SDS011;68;48.792;9.164;2023-08-06T03:37:17;30.33;;;13.32;;
151;SDS011;68;48.792;9.164;2023-08-06T03:39:44;27.60;;;12.02;;
151;SDS011;68;48.792;9.164;2023-08-06T03:42:10;24.90;;;12.73;;
151;SDS011;68;48.792;9.164;2023-08-06T03:44:37;25.30;;;12.95;;
151;SDS011;68;48.792;9.164;2023-08-06T03:47:04;25.73;;;13.27;;
151;SDS011;68;48.792;9.164;2023-08-06T03:49:31;30.48;;;13.65;;
151;SDS011;68;48.792;9.164;2023-08-06T03:51:58;27.85;;;14.60;;
151;SDS011;68;48.792;9.164;2023-08-06T03:54:26;24.90;;;12.93;;
151;SDS011;68;48.792;9.164;2023-08-06T03:56:53;26.60;;;13.13;;
151;SDS011;68;48.792;9.164;2023-08-06T03:59:20;25.65;;;11.75;;
151;SDS011;68;48.792;9.164;2023-08-06T04:01:47;25.23;;;12.60;;
151;SDS011;68;48.792;9.164;2023-08-06T04:04:13;24.55;;;11.73;;
151;SDS011;68;48.792;9.164;2023-08-06T04:06:40;26.13;;;12.77;;
151;SDS011;68;48.792;9.164;2023-08-06T04:09:07;29.20;;;13.02;;
151;SDS011;68;48.792;9.164;2023-08-06T04:11:35;28.67;;;10.43;;
151;SDS011;68;48.792;9.164;2023-08-06T04:14:02;23.25;;;11.35;;
151;SDS011;68;48.792;9.164;2023-08-06T04:16:28;24.92;;;10.90;;
151;SDS011;68;48.792;9.164;2023-08-06T04:18:55;27.40;;;11.77;;
151;SDS011;68;48.792;9.164;2023-08-06T04:21:23;33.17;;;13.68;;
151;SDS011;68;48.792;9.164;2023-08-06T04:23:50;25.30;;;12.48;;
151;SDS011;68;48.792;9.164;2023-08-06T04:26:16;26.90;;;12.77;;
151;SDS011;68;48.792;9.164;2023-08-06T04:28:44;27.50;;;11.55;;
151;SDS011;68;48.792;9.164;2023-08-06T04:31:11;27.50;;;11.85;;
151;SDS011;68;48.792;9.164;2023-08-06T04:33:38;23.45;;;9.98;;
151;SDS011;68;48.792;9.164;2023-08-06T04:36:05;26.20;;;12.52;;
151;SDS011;68;48.792;9.164;2023-08-06T04:38:32;28.70;;;12.75;;
151;SDS011;68;48.792;9.164;2023-08-06T04:40:59;24.38;;;10.95;;
151;SDS011;68;48.792;9.164;2023-08-06T04:43:25;23.70;;;11.88;;
151;SDS011;68;48.792;9.164;2023-08-06T04:45:54;27.95;;;14.32;;
151;SDS011;68;48.792;9.164;2023-08-06T04:48:21;26.80;;;12.05;;
151;SDS011;68;48.792;9.164;2023-08-06T04:50:48;23.60;;;11.00;;
151;SDS011;68;48.792;9.164;2023-08-06T04:53:16;24.77;;;11.27;;
151;SDS011;68;48.792;9.164;2023-08-06T04:55:42;24.33;;;11.70;;
151;SDS011;68;48.792;9.164;2023-08-06T04:58:10;26.05;;;11.18;;
151;SDS011;68;48.792;9.164;2023-08-06T05:00:37;25.90;;;12.60;;
151;SDS011;68;48.792;9.164;2023-08-06T05:03:05;24.75;;;11.32;;
151;SDS011;68;48.792;9.164;2023-08-06T05:05:32;22.77;;;10.00;;
151;SDS011;68;48.792;9.164;2023-08-06T05:07:59;25.52;;;12.68;;
151;SDS011;68;48.792;9.164;2023-08-06T05:10:26;26.30;;;11.18;;
151;SDS011;68;48.792;9.164;2023-08-06T05:12:53;25.13;;;13.30;;
151;SDS011;68;48.792;9.164;2023-08-06T05:15:20;28.38;;;15.63;;
151;SDS011;68;48.792;9.164;2023-08-06T05:17:47;24.08;;;10.07;;
151;SDS011;68;48.792;9.164;2023-08-06T05:20:15;22.35;;;10.98;;
151;SDS011;68;48.792;9.164;2023-08-06T05:22:43;26.65;;;12.02;;
151;SDS011;68;48.792;9.164;2023-08-06T05:25:12;26.38;;;13.30;;
151;SDS011;68;48.792;9.164;2023-08-06T05:27:39;23.85;;;12.38;;
151;SDS011;68;48.792;9.164;2023-08-06T05:30:07;27.48;;;13.80;;
151;SDS011;68;48.792;9.164;2023-08-06T05:32:35;24.75;;;11.55;;
151;SDS011;68;48.792;9.164;2023-08-06T05:35:02;23.52;;;11.88;;
151;SDS011;68;48.792;9.164;2023-08-06T05:37:30;24.77;;;10.13;;
151;SDS011;68;48.792;9.164;2023-08-06T05:39:57;22.38;;;11.40;;
151;SDS011;68;48.792;9.164;2023-08-06T05:42:23;23.38;;;12.40;;
151;SDS011;68;48.792;9.164;2023-08-06T05:44:50;23.65;;;11.65;;
151;SDS011;68;48.792;9.164;2023-08-06T05:47:17;23.63;;;10.43;;
151;SDS011;68;48.792;9.164;2023-08-06T05:49:44;21.85;;;10.18;;
151;SDS011;68;48.792;9.164;2023-08-06T05:52:11;23.50;;;11.98;;
151;SDS011;68;48.792;9.164;2023-08-06T05:54:39;27.67;;;11.43;;
151;SDS011;68;48.792;9.164;2023-08-06T05:57:06;21.80;;;9.73;;
151;SDS011;68;48.792;9.164;2023-08-06T05:59:33;24.55;;;10.70;;
151;SDS011;68;48.792;9.164;2023-08-06T06:02:00;22.48;;;11.02;;
151;SDS011;68;48.792;9.164;2023-08-06T06:04:27;22.27;;;9.30;;
151;SDS011;68;48.792;9.164;2023-08-06T06:06:54;22.63;;;10.25;;
151;SDS011;68;48.792;9.164;2023-08-06T06:09:21;23.38;;;10.88;;
151;SDS011;68;48.792;9.164;2023-08-06T06:11:49;22.45;;;11.27;;
151;SDS011;68;48.792;9.164;2023-08-06T06:14:16;21.73;;;10.07;;
151;SDS011;68;48.792;9.164;2023-08-06T06:16:42;23.05;;;9.55;;
151;SDS011;68;48.792;9.164;2023-08-06T06:19:09;23.38;;;9.93;;
151;SDS011;68;48.792;9.164;2023-08-06T06:21:36;21.88;;;10.43;;
151;SDS011;68;48.792;9.164;2023-08-06T06:24:04;22.77;;;9.77;;
151;SDS011;68;48.792;9.164;2023-08-06T06:26:30;23.33;;;9.98;;
151;SDS011;68;48.792;9.164;2023-08-06T06:28:59;19.60;;;7.90;;
151;SDS011;68;48.792;9.164;2023-08-06T06:31:26;23.33;;;9.82;;
151;SDS011;68;48.792;9.164;2023-08-06T06:33:52;22.23;;;9.13;;
151;SDS011;68;48.792;9.164;2023-08-06T06:36:20;20.73;;;8.75;;
151;SDS011;68;48.792;9.164;2023-08-06T06:38:48;21.75;;;9.85;;
151;SDS011;68;48.792;9.164;2023-08-06T06:41:15;21.10;;;8.60;;
151;SDS011;68;48.792;9.164;2023-08-06T06:43:42;20.25;;;9.13;;
151;SDS011;68;48.792;9.164;2023-08-06T06:46:10;19.02;;;7.88;;
151;SDS011;68;48.792;9.164;2023-08-06T06:48:37;20.58;;;8.60;;
151;SDS011;68;48.792;9.164;2023-08-06T06:51:04;22.42;;;9.20;;
151;SDS011;68;48.792;9.164;2023-08-06T06:53:31;22.95;;;10.05;;
151;SDS011;68;48.792;9.164;2023-08-06T06:56:01;23.65;;;9.90;;
151;SDS011;68;48.792;9.164;2023-08-06T06:58:29;22.20;;;10.15;;
151;SDS011;68;48.792;9.164;2023-08-06T07:00:56;22.13;;;10.20;;
151;SDS011;68;48.792;9.164;2023-08-06T07:03:24;21.52;;;9.35;;
151;SDS011;68;48.792;9.164;2023-08-06T07:05:51;21.15;;;9.90;;
151;SDS011;68;48.792;9.164;2023-08-06T07:08:18;25.30;;;11.15;;
151;SDS011;68;48.792;9.164;2023-08-06T07:10:44;20.38;;;9.40;;
151;SDS011;68;48.792;9.164;2023-08-06T07:13:11;24.70;;;8.13;;
151;SDS011;68;48.792;9.164;2023-08-06T07:15:38;23.73;;;10.02;;
151;SDS011;68;48.792;9.164;2023-08-06T07:18:05;23.73;;;10.63;;
151;SDS011;68;48.792;9.164;2023-08-06T07:20:33;21.52;;;10.35;;
151;SDS011;68;48.792;9.164;2023-08-06T07:23:00;21.85;;;10.75;;
151;SDS011;68;48.792;9.164;2023-08-06T07:25:27;23.40;;;10.00;;
151;SDS011;68;48.792;9.164;2023-08-06T07:27:53;20.95;;;8.38;;
151;SDS011;68;48.792;9.164;2023-08-06T07:30:21;22.15;;;8.38;;
151;SDS011;68;48.792;9.164;2023-08-06T07:32:48;22.63;;;9.57;;
151;SDS011;68;48.792;9.164;2023-08-06T07:35:16;21.33;;;8.70;;
151;SDS011;68;48.792;9.164;2023-08-06T07:37:44;23.83;;;9.68;;
151;SDS011;68;48.792;9.164;2023-08-06T07:40:11;21.15;;;9.45;;
151;SDS011;68;48.792;9.164;2023-08-06T07:42:38;23.58;;;10.60;;
151;SDS011;68;48.792;9.164;2023-08-06T07:45:06;19.90;;;9.50;;
151;SDS011;68;48.792;9.164;2023-08-06T07:47:34;24.27;;;10.73;;
151;SDS011;68;48.792;9.164;2023-08-06T07:50:01;26.38;;;11.15;;
151;SDS011;68;48.792;9.164;2023-08-06T07:52:28;21.80;;;8.95;;
151;SDS011;68;48.792;9.164;2023-08-06T07:54:56;23.30;;;10.60;;
151;SDS011;68;48.792;9.164;2023-08-06T07:57:23;21.55;;;10.25;;
151;SDS011;68;48.792;9.164;2023-08-06T07:59:50;29.23;;;10.98;;
151;SDS011;68;48.792;9.164;2023-08-06T08:02:18;21.60;;;8.98;;
151;SDS011;68;48.792;9.164;2023-08-06T08:04:45;22.48;;;11.07;;
151;SDS011;68;48.792;9.164;2023-08-06T08:07:13;22.63;;;10.07;;
151;SDS011;68;48.792;9.164;2023-08-06T08:09:40;24.08;;;10.95;;
151;SDS011;68;48.792;9.164;2023-08-06T08:12:08;21.75;;;8.00;;
151;SDS011;68;48.792;9.164;2023-08-06T08:14:35;19.67;;;7.85;;
151;SDS011;68;48.792;9.164;2023-08-06T08:17:02;21.50;;;9.05;;
151;SDS011;68;48.792;9.164;2023-08-06T08:19:30;22.33;;;10.75;;
151;SDS011;68;48.792;9.164;2023-08-06T08:21:57;21.17;;;9.18;;
151;SDS011;68;48.792;9.164;2023-08-06T08:24:25;22.90;;;8.80;;
151;SDS011;68;48.792;9.164;2023-08-06T08:26:52;20.75;;;9.50;;
151;SDS011;68;48.792;9.164;2023-08-06T08:29:20;20.70;;;9.13;;
151;SDS011;68;48.792;9.164;2023-08-06T08:31:47;20.58;;;7.40;;
151;SDS011;68;48.792;9.164;2023-08-06T08:34:15;18.15;;;8.18;;
151;SDS011;68;48.792;9.164;2023-08-06T08:36:42;20.55;;;7.28;;
151;SDS011;68;48.792;9.164;2023-08-06T08:39:11;20.73;;;6.22;;
151;SDS011;68;48.792;9.164;2023-08-06T08:41:38;19.23;;;7.68;;
151;SDS011;68;48.792;9.164;2023-08-06T08:44:07;19.75;;;8.23;;
151;SDS011;68;48.792;9.164;2023-08-06T08:46:38;19.58;;;7.13;;
151;SDS011;68;48.792;9.164;2023-08-06T08:49:07;17.38;;;6.10;;
151;SDS011;68;48.792;9.164;2023-08-06T08:51:34;18.10;;;5.80;;
151;SDS011;68;48.792;9.164;2023-08-06T08:54:02;19.90;;;8.20;;
151;SDS011;68;48.792;9.164;2023-08-06T08:56:29;20.80;;;7.20;;
151;SDS011;68;48.792;9.164;2023-08-06T08:58:57;18.25;;;7.15;;
151;SDS011;68;48.792;9.164;2023-08-06T09:01:24;17.75;;;7.07;;
151;SDS011;68;48.792;9.164;2023-08-06T09:03:53;20.02;;;7.72;;
151;SDS011;68;48.792;9.164;2023-08-06T09:06:21;19.58;;;8.48;;
151;SDS011;68;48.792;9.164;2023-08-06T09:08:50;18.77;;;7.47;;
151;SDS011;68;48.792;9.164;2023-08-06T09:11:25;19.77;;;5.25;;
151;SDS011;68;48.792;9.164;2023-08-06T09:13:53;20.27;;;8.90;;
151;SDS011;68;48.792;9.164;2023-08-06T09:16:21;20.08;;;8.38;;
151;SDS011;68;48.792;9.164;2023-08-06T09:18:47;19.25;;;8.23;;
151;SDS011;68;48.792;9.164;2023-08-06T09:21:15;19.30;;;8.23;;
151;SDS011;68;48.792;9.164;2023-08-06T09:23:42;20.17;;;8.70;;
151;SDS011;68;48.792;9.164;2023-08-06T09:26:11;19.15;;;7.35;;
151;SDS011;68;48.792;9.164;2023-08-06T09:28:38;19.98;;;7.40;;
151;SDS011;68;48.792;9.164;2023-08-06T09:31:07;18.85;;;7.18;;
151;SDS011;68;48.792;9.164;2023-08-06T09:33:35;17.55;;;6.85;;
151;SDS011;68;48.792;9.164;2023-08-06T09:36:09;19.35;;;7.50;;
151;SDS011;68;48.792;9.164;2023-08-06T09:38:40;20.60;;;9.20;;
151;SDS011;68;48.792;9.164;2023-08-06T09:41:07;18.15;;;7.22;;
151;SDS011;68;48.792;9.164;2023-08-06T09:43:40;18.98;;;7.32;;
151;SDS011;68;48.792;9.164;2023-08-06T09:46:11;19.48;;;7.60;;
151;SDS011;68;48.792;9.164;2023-08-06T09:48:40;18.80;;;7.55;;
151;SDS011;68;48.792;9.164;2023-08-06T09:51:10;19.30;;;8.70;;
151;SDS011;68;48.792;9.164;2023-08-06T09:53:40;19.45;;;7.40;;
151;SDS011;68;48.792;9.164;2023-08-06T09:56:08;19.63;;;7.78;;
151;SDS011;68;48.792;9.164;2023-08-06T09:58:36;18.02;;;6.95;;
151;SDS011;68;48.792;9.164;2023-08-06T10:01:04;18.50;;;7.00;;
151;SDS011;68;48.792;9.164;2023-08-06T10:03:31;19.17;;;7.30;;
151;SDS011;68;48.792;9.164;2023-08-06T10:06:00;19.55;;;8.85;;
151;SDS011;68;48.792;9.164;2023-08-06T10:08:31;19.42;;;8.02;;
151;SDS011;68;48.792;9.164;2023-08-06T10:10:59;19.73;;;7.95;;
151;SDS011;68;48.792;9.164;2023-08-06T10:13:29;18.88;;;7.22;;
151;SDS011;68;48.792;9.164;2023-08-06T10:15:56;19.55;;;6.88;;
151;SDS011;68;48.792;9.164;2023-08-06T10:18:23;19.52;;;8.57;;
151;SDS011;68;48.792;9.164;2023-08-06T10:20:51;18.40;;;7.47;;
151;SDS011;68;48.792;9.164;2023-08-06T10:23:18;16.95;;;6.53;;
151;SDS011;68;48.792;9.164;2023-08-06T10:25:46;19.13;;;7.63;;
151;SDS011;68;48.792;9.164;2023-08-06T10:28:22;23.08;;;10.63;;
151;SDS011;68;48.792;9.164;2023-08-06T10:30:59;18.05;;;8.60;;
151;SDS011;68;48.792;9.164;2023-08-06T10:33:26;18.02;;;7.05;;
151;SDS011;68;48.792;9.164;2023-08-06T10:36:07;18.85;;;6.85;;
151;SDS011;68;48.792;9.164;2023-08-06T10:38:35;20.25;;;8.48;;
151;SDS011;68;48.792;9.164;2023-08-06T10:41:14;21.85;;;8.55;;
151;SDS011;68;48.792;9.164;2023-08-06T10:43:43;18.33;;;7.78;;
151;SDS011;68;48.792;9.164;2023-08-06T10:46:21;17.92;;;8.40;;
151;SDS011;68;48.792;9.164;2023-08-06T10:48:49;18.25;;;7.45;;
151;SDS011;68;48.792;9.164;2023-08-06T10:51:16;19.33;;;6.63;;
151;SDS011;68;48.792;9.164;2023-08-06T10:53:44;18.92;;;7.65;;
151;SDS011;68;48.792;9.164;2023-08-06T10:56:12;19.90;;;7.65;;
151;SDS011;68;48.792;9.164;2023-08-06T10:58:39;18.20;;;7.43;;
151;SDS011;68;48.792;9.164;2023-08-06T11:01:08;17.13;;;5.43;;
151;SDS011;68;48.792;9.164;2023-08-06T11:03:35;19.42;;;7.07;;
151;SDS011;68;48.792;9.164;2023-08-06T11:06:02;18.52;;;7.05;;
151;SDS011;68;48.792;9.164;2023-08-06T11:08:32;19.00;;;6.25;;
151;SDS011;68;48.792;9.164;2023-08-06T11:11:07;20.33;;;7.90;;
151;SDS011;68;48.792;9.164;2023-08-06T11:13:36;18.83;;;7.70;;
151;SDS011;68;48.792;9.164;2023-08-06T11:16:03;17.52;;;5.72;;
151;SDS011;68;48.792;9.164;2023-08-06T11:18:32;18.33;;;6.70;;
151;SDS011;68;48.792;9.164;2023-08-06T11:20:59;18.38;;;6.88;;
151;SDS011;68;48.792;9.164;2023-08-06T11:23:26;19.23;;;7.22;;
151;SDS011;68;48.792;9.164;2023-08-06T11:25:54;19.17;;;8.15;;
151;SDS011;68;48.792;9.164;2023-08-06T11:28:21;18.15;;;7.10;;
151;SDS011;68;48.792;9.164;2023-08-06T11:30:48;18.00;;;6.68;;
151;SDS011;68;48.792;9.164;2023-08-06T11:33:19;17.48;;;6.13;;
151;SDS011;68;48.792;9.164;2023-08-06T11:35:48;18.88;;;7.13;;
151;SDS011;68;48.792;9.164;2023-08-06T11:38:15;20.33;;;7.55;;
151;SDS011;68;48.792;9.164;2023-08-06T11:40:43;18.83;;;6.60;;
151;SDS011;68;48.792;9.164;2023-08-06T11:43:10;18.70;;;7.55;;
151;SDS011;68;48.792;9.164;2023-08-06T11:45:38;19.95;;;8.85;;
151;SDS011;68;48.792;9.164;2023-08-06T11:48:05;20.15;;;8.18;;
151;SDS011;68;48.792;9.164;2023-08-06T11:50:35;21.42;;;7.90;;
151;SDS011;68;48.792;9.164;2023-08-06T11:53:04;20.63;;;9.30;;
151;SDS011;68;48.792;9.164;2023-08-06T11:55:31;19.38;;;6.97;;
151;SDS011;68;48.792;9.164;2023-08-06T11:57:58;21.92;;;9.15;;
151;SDS011;68;48.792;9.164;2023-08-06T12:00:28;20.83;;;9.15;;
151;SDS011;68;48.792;9.164;2023-08-06T12:02:55;21.77;;;8.48;;
151;SDS011;68;48.792;9.164;2023-08-06T12:05:23;19.38;;;8.35;;
151;SDS011;68;48.792;9.164;2023-08-06T12:07:56;21.52;;;9.63;;
151;SDS011;68;48.792;9.164;2023-08-06T12:10:25;22.10;;;9.10;;
151;SDS011;68;48.792;9.164;2023-08-06T12:12:53;25.42;;;10.98;;
151;SDS011;68;48.792;9.164;2023-08-06T12:15:22;22.70;;;10.63;;
151;SDS011;68;48.792;9.164;2023-08-06T12:17:49;21.70;;;9.45;;
151;SDS011;68;48.792;9.164;2023-08-06T12:20:16;20.98;;;8.45;;
151;SDS011;68;48.792;9.164;2023-08-06T12:22:43;21.45;;;10.40;;
151;SDS011;68;48.792;9.164;2023-08-06T12:25:11;22.30;;;10.43;;
151;SDS011;68;48.792;9.164;2023-08-06T12:27:40;20.63;;;7.00;;
151;SDS011;68;48.792;9.164;2023-08-06T12:30:08;20.00;;;8.05;;
151;SDS011;68;48.792;9.164;2023-08-06T12:32:36;23.83;;;10.13;;
151;SDS011;68;48.792;9.164;2023-08-06T12:35:04;20.08;;;7.40;;
151;SDS011;68;48.792;9.164;2023-08-06T12:37:32;20.65;;;8.85;;
151;SDS011;68;48.792;9.164;2023-08-06T12:39:59;21.67;;;7.95;;
151;SDS011;68;48.792;9.164;2023-08-06T12:42:26;19.00;;;7.00;;
151;SDS011;68;48.792;9.164;2023-08-06T12:44:54;19.80;;;7.15;;
151;SDS011;68;48.792;9.164;2023-08-06T12:47:21;21.02;;;6.03;;
151;SDS011;68;48.792;9.164;2023-08-06T12:49:48;18.30;;;6.55;;
151;SDS011;68;48.792;9.164;2023-08-06T12:52:15;21.10;;;8.27;;
151;SDS011;68;48.792;9.164;2023-08-06T12:54:44;19.70;;;5.53;;
151;SDS011;68;48.792;9.164;2023-08-06T12:57:11;20.75;;;6.15;;
151;SDS011;68;48.792;9.164;2023-08-06T12:59:39;24.50;;;6.30;;
151;SDS011;68;48.792;9.164;2023-08-06T13:02:07;19.90;;;6.47;;
151;SDS011;68;48.792;9.164;2023-08-06T13:04:34;19.63;;;7.20;;
151;SDS011;68;48.792;9.164;2023-08-06T13:07:01;17.50;;;5.95;;
151;SDS011;68;48.792;9.164;2023-08-06T13:09:28;19.73;;;6.60;;
151;SDS011;68;48.792;9.164;2023-08-06T13:11:55;22.38;;;6.78;;
151;SDS011;68;48.792;9.164;2023-08-06T13:14:23;20.50;;;6.35;;
151;SDS011;68;48.792;9.164;2023-08-06T13:16:49;20.20;;;6.32;;
151;SDS011;68;48.792;9.164;2023-08-06T13:19:18;20.48;;;6.80;;
151;SDS011;68;48.792;9.164;2023-08-06T13:24:31;19.02;;;6.50;;
151;SDS011;68;48.792;9.164;2023-08-06T13:26:59;19.52;;;6.75;;
151;SDS011;68;48.792;9.164;2023-08-06T13:29:26;19.23;;;6.45;;
151;SDS011;68;48.792;9.164;2023-08-06T13:31:53;18.70;;;6.35;;
151;SDS011;68;48.792;9.164;2023-08-06T13:34:21;17.60;;;5.28;;
151;SDS011;68;48.792;9.164;2023-08-06T13:36:48;17.58;;;4.85;;
151;SDS011;68;48.792;9.164;2023-08-06T13:39:15;18.05;;;5.47;;
151;SDS011;68;48.792;9.164;2023-08-06T13:41:42;19.58;;;6.43;;
151;SDS011;68;48.792;9.164;2023-08-06T13:44:10;18.10;;;5.13;;
151;SDS011;68;48.792;9.164;2023-08-06T13:46:39;18.55;;;5.63;;
151;SDS011;68;48.792;9.164;2023-08-06T13:49:06;18.85;;;6.45;;
151;SDS011;68;48.792;9.164;2023-08-06T13:51:34;17.98;;;5.85;;
151;SDS011;68;48.792;9.164;2023-08-06T13:54:01;18.13;;;5.63;;
151;SDS011;68;48.792;9.164;2023-08-06T13:56:28;20.10;;;7.72;;
151;SDS011;68;48.792;9.164;2023-08-06T13:58:55;18.80;;;7.18;;
151;SDS011;68;48.792;9.164;2023-08-06T14:01:22;18.90;;;6.25;;
151;SDS011;68;48.792;9.164;2023-08-06T14:03:49;18.08;;;6.05;;
151;SDS011;68;48.792;9.164;2023-08-06T14:06:15;18.80;;;6.32;;
151;SDS011;68;48.792;9.164;2023-08-06T14:08:44;19.05;;;6.45;;
151;SDS011;68;48.792;9.164;2023-08-06T14:11:10;17.45;;;4.85;;
151;SDS011;68;48.792;9.164;2023-08-06T14:13:37;17.77;;;5.25;;
151;SDS011;68;48.792;9.164;2023-08-06T14:16:04;18.80;;;5.78;;
151;SDS011;68;48.792;9.164;2023-08-06T14:18:31;18.13;;;5.35;;
151;SDS011;68;48.792;9.164;2023-08-06T14:20:58;19.10;;;6.47;;
151;SDS011;68;48.792;9.164;2023-08-06T14:23:25;19.90;;;5.75;;
151;SDS011;68;48.792;9.164;2023-08-06T14:25:53;18.13;;;6.05;;
151;SDS011;68;48.792;9.164;2023-08-06T14:28:20;18.65;;;5.43;;
151;SDS011;68;48.792;9.164;2023-08-06T14:30:47;19.50;;;6.63;;
151;SDS011;68;48.792;9.164;2023-08-06T14:33:14;18.35;;;5.85;;
151;SDS011;68;48.792;9.164;2023-08-06T14:35:40;18.95;;;6.05;;
151;SDS011;68;48.792;9.164;2023-08-06T14:38:07;18.73;;;5.85;;
151;SDS011;68;48.792;9.164;2023-08-06T14:40:34;18.05;;;5.95;;
151;SDS011;68;48.792;9.164;2023-08-06T14:43:04;20.75;;;6.25;;
151;SDS011;68;48.792;9.164;2023-08-06T14:45:31;18.55;;;6.43;;
151;SDS011;68;48.792;9.164;2023-08-06T14:47:58;19.50;;;7.13;;
151;SDS011;68;48.792;9.164;2023-08-06T14:50:25;18.50;;;5.95;;
151;SDS011;68;48.792;9.164;2023-08-06T14:52:52;18.10;;;6.07;;
151;SDS011;68;48.792;9.164;2023-08-06T14:55:23;19.08;;;6.53;;
151;SDS011;68;48.792;9.164;2023-08-06T14:57:50;19.58;;;6.45;;
151;SDS011;68;48.792;9.164;2023-08-06T15:00:19;18.38;;;5.95;;
151;SDS011;68;48.792;9.164;2023-08-06T15:02:46;19.35;;;5.65;;
151;SDS011;68;48.792;9.164;2023-08-06T15:05:13;19.02;;;6.95;;
151;SDS011;68;48.792;9.164;2023-08-06T15:07:40;17.73;;;5.75;;
151;SDS011;68;48.792;9.164;2023-08-06T15:10:07;21.77;;;8.98;;
151;SDS011;68;48.792;9.164;2023-08-06T15:12:34;22.40;;;8.82;;
151;SDS011;68;48.792;9.164;2023-08-06T15:15:00;20.85;;;8.07;;
151;SDS011;68;48.792;9.164;2023-08-06T15:17:29;18.58;;;6.30;;
151;SDS011;68;48.792;9.164;2023-08-06T15:19:56;18.83;;;6.97;;
151;SDS011;68;48.792;9.164;2023-08-06T15:22:23;19.50;;;7.60;;
151;SDS011;68;48.792;9.164;2023-08-06T15:24:50;18.98;;;6.72;;
151;SDS011;68;48.792;9.164;2023-08-06T15:27:17;17.95;;;6.70;;
151;SDS011;68;48.792;9.164;2023-08-06T15:29:45;21.25;;;8.98;;
151;SDS011;68;48.792;9.164;2023-08-06T15:32:11;18.92;;;6.75;;
151;SDS011;68;48.792;9.164;2023-08-06T15:34:39;19.92;;;6.18;;
151;SDS011;68;48.792;9.164;2023-08-06T15:37:06;19.85;;;6.93;;
151;SDS011;68;48.792;9.164;2023-08-06T15:39:33;20.80;;;7.43;;
151;SDS011;68;48.792;9.164;2023-08-06T15:42:00;18.85;;;6.70;;